Reagan, Tennessee
Current Conditions -  °F | °C
As of 4:35 AM on Thursday 29 Jan 2015 (Local Time) from KPVE Reporting Station
Overcast Overcast  
Wind Chill: 50°   Ceiling: 9500
Heat Index: 50°   Visibility: 10mi
Dew Point: 30°   Wind: 10mph
Humidity: 47%   Direction: 180°S
Pressure: 30.03"   Gusts: NA
Location:  35.52°N, 88.34°W
Report Text: KPVE 291035Z AUTO 18009KT 10SM FEW070 OVC095 10/M01 A3003 RMK
Loading
Personal Weather Stations






























Interactive Weather Map New forecast layout! Learn more

10-Day Weather Forecast

Advertisements
Track Severe Weather on mobile